sensor_id;sensor_type;location;lat;lon;timestamp;pressure;altitude;pressure_sealevel;temperature;humidity
50696;BME280;36665;51.786;21.594;2023-04-30T00:06:06;94597.35;;;7.03;55.01
50696;BME280;36665;51.786;21.594;2023-04-30T00:14:29;94595.98;;;7.02;54.85
50696;BME280;36665;51.786;21.594;2023-04-30T00:22:52;94586.18;;;6.99;54.86
50696;BME280;36665;51.786;21.594;2023-04-30T00:31:15;94543.17;;;6.87;55.02
50696;BME280;36665;51.786;21.594;2023-04-30T00:39:38;94503.77;;;6.77;54.82
50696;BME280;36665;51.786;21.594;2023-04-30T00:48:01;94493.85;;;6.74;54.77
50696;BME280;36665;51.786;21.594;2023-04-30T00:56:25;94466.66;;;6.68;54.90
50696;BME280;36665;51.786;21.594;2023-04-30T01:04:49;94406.52;;;6.52;54.85
50696;BME280;36665;51.786;21.594;2023-04-30T01:13:20;94326.55;;;6.30;54.76
50696;BME280;36665;51.786;21.594;2023-04-30T01:21:46;94272.29;;;6.16;54.83
50696;BME280;36665;51.786;21.594;2023-04-30T01:30:11;94248.27;;;6.09;54.72
50696;BME280;36665;51.786;21.594;2023-04-30T01:38:39;94192.01;;;5.94;54.77
50696;BME280;36665;51.786;21.594;2023-04-30T01:47:08;94135.83;;;5.79;54.70
50696;BME280;36665;51.786;21.594;2023-04-30T01:55:40;94137.06;;;5.78;54.61
50696;BME280;36665;51.786;21.594;2023-04-30T02:04:04;94182.42;;;5.92;54.83
50696;BME280;36665;51.786;21.594;2023-04-30T02:12:28;94215.71;;;6.02;54.98
50696;BME280;36665;51.786;21.594;2023-04-30T02:20:52;94220.82;;;6.02;55.02
50696;BME280;36665;51.786;21.594;2023-04-30T02:29:14;94245.05;;;6.08;54.83
50696;BME280;36665;51.786;21.594;2023-04-30T02:37:39;94313.46;;;6.26;54.88
50696;BME280;36665;51.786;21.594;2023-04-30T02:46:02;94386.52;;;6.48;55.11
50696;BME280;36665;51.786;21.594;2023-04-30T02:54:25;94423.11;;;6.57;55.15
50696;BME280;36665;51.786;21.594;2023-04-30T03:02:48;94451.66;;;6.66;55.03
50696;BME280;36665;51.786;21.594;2023-04-30T03:11:11;94476.52;;;6.72;55.13
50696;BME280;36665;51.786;21.594;2023-04-30T03:19:34;94450.77;;;6.65;55.20
50696;BME280;36665;51.786;21.594;2023-04-30T03:27:58;94405.83;;;6.53;55.26
50696;BME280;36665;51.786;21.594;2023-04-30T03:36:21;94427.89;;;6.58;55.15
50696;BME280;36665;51.786;21.594;2023-04-30T03:44:44;94494.45;;;6.77;55.18
50696;BME280;36665;51.786;21.594;2023-04-30T03:53:07;94554.13;;;6.93;55.42
50696;BME280;36665;51.786;21.594;2023-04-30T04:01:30;94602.45;;;7.05;55.49
50696;BME280;36665;51.786;21.594;2023-04-30T04:09:54;94678.77;;;7.26;55.52
50696;BME280;36665;51.786;21.594;2023-04-30T04:18:17;94757.00;;;7.48;55.59
50696;BME280;36665;51.786;21.594;2023-04-30T04:26:40;94813.56;;;7.63;55.58
50696;BME280;36665;51.786;21.594;2023-04-30T04:35:04;94869.04;;;7.78;55.86
50696;BME280;36665;51.786;21.594;2023-04-30T04:43:28;94922.20;;;7.91;55.88
50696;BME280;36665;51.786;21.594;2023-04-30T04:51:51;94972.14;;;8.05;55.92
50696;BME280;36665;51.786;21.594;2023-04-30T05:00:14;95053.61;;;8.26;55.95
50696;BME280;36665;51.786;21.594;2023-04-30T05:08:39;95174.39;;;8.58;56.02
50696;BME280;36665;51.786;21.594;2023-04-30T05:17:02;95305.18;;;8.92;56.14
50696;BME280;36665;51.786;21.594;2023-04-30T05:25:25;95449.45;;;9.31;56.49
50696;BME280;36665;51.786;21.594;2023-04-30T05:33:49;95617.39;;;9.73;56.59
50696;BME280;36665;51.786;21.594;2023-04-30T05:42:11;95726.52;;;10.03;56.45
50696;BME280;36665;51.786;21.594;2023-04-30T05:50:34;95718.98;;;10.00;56.72
50696;BME280;36665;51.786;21.594;2023-04-30T05:58:58;95665.92;;;9.85;56.91
50696;BME280;36665;51.786;21.594;2023-04-30T06:07:21;95625.29;;;9.74;56.83
50696;BME280;36665;51.786;21.594;2023-04-30T06:15:44;95552.36;;;9.54;56.73
50696;BME280;36665;51.786;21.594;2023-04-30T06:24:08;95484.55;;;9.36;56.78
50696;BME280;36665;51.786;21.594;2023-04-30T06:32:31;95443.69;;;9.26;56.77
50696;BME280;36665;51.786;21.594;2023-04-30T06:40:54;95443.48;;;9.25;56.98
50696;BME280;36665;51.786;21.594;2023-04-30T06:49:17;95492.63;;;9.37;56.94
50696;BME280;36665;51.786;21.594;2023-04-30T06:57:40;95541.14;;;9.51;56.91
50696;BME280;36665;51.786;21.594;2023-04-30T07:06:03;95559.62;;;9.55;57.13
50696;BME280;36665;51.786;21.594;2023-04-30T07:14:27;95561.36;;;9.55;56.90
50696;BME280;36665;51.786;21.594;2023-04-30T07:22:50;95624.99;;;9.71;57.16
50696;BME280;36665;51.786;21.594;2023-04-30T07:31:13;95699.67;;;9.91;57.20
50696;BME280;36665;51.786;21.594;2023-04-30T07:39:36;95800.81;;;10.18;57.33
50696;BME280;36665;51.786;21.594;2023-04-30T07:48:00;96019.14;;;10.74;57.55
50696;BME280;36665;51.786;21.594;2023-04-30T07:56:23;96307.89;;;11.49;57.61
50696;BME280;36665;51.786;21.594;2023-04-30T08:04:46;96554.91;;;12.13;57.98
50696;BME280;36665;51.786;21.594;2023-04-30T08:13:10;96726.98;;;12.56;58.19
50696;BME280;36665;51.786;21.594;2023-04-30T08:21:33;96824.24;;;12.81;58.11
50696;BME280;36665;51.786;21.594;2023-04-30T08:29:57;96903.11;;;13.01;58.33
50696;BME280;36665;51.786;21.594;2023-04-30T08:38:19;97001.95;;;13.25;58.22
50696;BME280;36665;51.786;21.594;2023-04-30T08:46:42;97151.35;;;13.63;58.44
50696;BME280;36665;51.786;21.594;2023-04-30T08:55:07;97433.16;;;14.34;58.59
50696;BME280;36665;51.786;21.594;2023-04-30T09:03:30;97527.91;;;14.56;58.69
50696;BME280;36665;51.786;21.594;2023-04-30T09:20:34;97446.87;;;14.36;58.80
50696;BME280;36665;51.786;21.594;2023-04-30T09:28:58;97571.73;;;14.65;58.96
50696;BME280;36665;51.786;21.594;2023-04-30T09:37:36;97511.48;;;14.50;58.92
50696;BME280;36665;51.786;21.594;2023-04-30T09:46:00;97525.51;;;14.53;58.80
50696;BME280;36665;51.786;21.594;2023-04-30T09:54:27;97689.39;;;14.93;59.09
50696;BME280;36665;51.786;21.594;2023-04-30T10:02:51;97765.04;;;15.12;59.04
50696;BME280;36665;51.786;21.594;2023-04-30T10:11:19;97517.35;;;14.50;59.13
50696;BME280;36665;51.786;21.594;2023-04-30T10:19:47;97511.70;;;14.49;59.04
50696;BME280;36665;51.786;21.594;2023-04-30T10:28:11;97684.84;;;14.91;59.01
50696;BME280;36665;51.786;21.594;2023-04-30T10:45:09;97844.10;;;15.32;59.11
50696;BME280;36665;51.786;21.594;2023-04-30T10:53:35;97884.08;;;15.40;59.04
50696;BME280;36665;51.786;21.594;2023-04-30T11:02:01;97933.91;;;15.53;59.26
50696;BME280;36665;51.786;21.594;2023-04-30T11:10:32;97978.48;;;15.65;59.23
50696;BME280;36665;51.786;21.594;2023-04-30T11:19:05;98014.30;;;15.73;59.40
50696;BME280;36665;51.786;21.594;2023-04-30T11:27:33;98020.33;;;15.73;59.33
50696;BME280;36665;51.786;21.594;2023-04-30T11:35:58;97994.98;;;15.67;59.26
50696;BME280;36665;51.786;21.594;2023-04-30T11:44:25;98005.02;;;15.70;59.28
50696;BME280;36665;51.786;21.594;2023-04-30T11:52:50;97972.48;;;15.61;59.28
50696;BME280;36665;51.786;21.594;2023-04-30T12:01:17;97935.56;;;15.52;59.10
50696;BME280;36665;51.786;21.594;2023-04-30T12:09:54;97851.71;;;15.31;59.04
50696;BME280;36665;51.786;21.594;2023-04-30T12:18:19;97821.37;;;15.23;58.98
50696;BME280;36665;51.786;21.594;2023-04-30T12:26:42;97841.80;;;15.28;58.94
50696;BME280;36665;51.786;21.594;2023-04-30T12:35:05;97888.29;;;15.40;58.89
50696;BME280;36665;51.786;21.594;2023-04-30T12:43:29;98005.64;;;15.70;59.19
50696;BME280;36665;51.786;21.594;2023-04-30T12:52:03;98053.61;;;15.82;59.04
50696;BME280;36665;51.786;21.594;2023-04-30T13:00:26;98017.71;;;15.73;59.04
50696;BME280;36665;51.786;21.594;2023-04-30T13:08:49;97975.06;;;15.62;58.92
50696;BME280;36665;51.786;21.594;2023-04-30T13:17:20;97913.84;;;15.47;58.91
50696;BME280;36665;51.786;21.594;2023-04-30T13:25:45;97908.88;;;15.46;58.79
50696;BME280;36665;51.786;21.594;2023-04-30T13:34:08;97941.52;;;15.54;58.82
50696;BME280;36665;51.786;21.594;2023-04-30T13:42:32;97958.46;;;15.59;58.72
50696;BME280;36665;51.786;21.594;2023-04-30T13:50:55;97930.15;;;15.52;58.76
50696;BME280;36665;51.786;21.594;2023-04-30T13:59:18;97868.49;;;15.36;58.86
50696;BME280;36665;51.786;21.594;2023-04-30T14:07:41;97857.56;;;15.34;58.56
50696;BME280;36665;51.786;21.594;2023-04-30T14:16:05;97825.55;;;15.25;58.63
50696;BME280;36665;51.786;21.594;2023-04-30T14:24:28;97790.96;;;15.17;58.50
50696;BME280;36665;51.786;21.594;2023-04-30T14:32:51;97742.91;;;15.05;58.39
50696;BME280;36665;51.786;21.594;2023-04-30T14:41:14;97682.85;;;14.92;58.44
50696;BME280;36665;51.786;21.594;2023-04-30T14:49:38;97654.98;;;14.84;58.33
50696;BME280;36665;51.786;21.594;2023-04-30T14:58:01;97632.16;;;14.78;58.62
50696;BME280;36665;51.786;21.594;2023-04-30T15:06:24;97566.13;;;14.62;58.43
50696;BME280;36665;51.786;21.594;2023-04-30T15:14:47;97532.52;;;14.53;58.39
50696;BME280;36665;51.786;21.594;2023-04-30T15:23:10;97524.06;;;14.51;58.23
50696;BME280;36665;51.786;21.594;2023-04-30T15:31:34;97488.25;;;14.44;58.13
50696;BME280;36665;51.786;21.594;2023-04-30T15:39:57;97446.23;;;14.33;58.09
50696;BME280;36665;51.786;21.594;2023-04-30T15:48:20;97387.01;;;14.18;58.12
50696;BME280;36665;51.786;21.594;2023-04-30T15:56:43;97351.56;;;14.10;57.96
50696;BME280;36665;51.786;21.594;2023-04-30T16:05:06;97297.70;;;13.97;57.88
50696;BME280;36665;51.786;21.594;2023-04-30T16:13:29;97225.31;;;13.79;57.78
50696;BME280;36665;51.786;21.594;2023-04-30T16:21:53;97164.57;;;13.63;57.63
50696;BME280;36665;51.786;21.594;2023-04-30T16:30:16;97093.02;;;13.46;57.76
50696;BME280;36665;51.786;21.594;2023-04-30T16:38:39;97031.86;;;13.30;57.49
50696;BME280;36665;51.786;21.594;2023-04-30T16:47:02;96956.28;;;13.11;57.29
50696;BME280;36665;51.786;21.594;2023-04-30T16:55:25;96883.25;;;12.92;57.31
50696;BME280;36665;51.786;21.594;2023-04-30T17:03:49;96799.52;;;12.71;57.37
50696;BME280;36665;51.786;21.594;2023-04-30T17:12:13;96701.08;;;12.47;57.17
50696;BME280;36665;51.786;21.594;2023-04-30T17:20:36;96615.02;;;12.24;57.27
50696;BME280;36665;51.786;21.594;2023-04-30T17:28:59;96518.97;;;12.00;57.04
50696;BME280;36665;51.786;21.594;2023-04-30T17:37:22;96424.23;;;11.76;56.95
50696;BME280;36665;51.786;21.594;2023-04-30T17:45:45;96316.09;;;11.49;56.97
50696;BME280;36665;51.786;21.594;2023-04-30T17:54:08;96206.13;;;11.20;56.84
50696;BME280;36665;51.786;21.594;2023-04-30T18:02:31;96092.92;;;10.91;56.86
50696;BME280;36665;51.786;21.594;2023-04-30T18:10:55;95959.68;;;10.57;56.52
50696;BME280;36665;51.786;21.594;2023-04-30T18:19:18;95832.27;;;10.24;56.45
50696;BME280;36665;51.786;21.594;2023-04-30T18:27:42;95709.40;;;9.91;56.26
50696;BME280;36665;51.786;21.594;2023-04-30T18:36:05;95587.77;;;9.59;56.27
50696;BME280;36665;51.786;21.594;2023-04-30T18:44:29;95474.36;;;9.29;56.28
50696;BME280;36665;51.786;21.594;2023-04-30T18:52:56;95371.98;;;9.03;56.08
50696;BME280;36665;51.786;21.594;2023-04-30T19:01:19;95276.14;;;8.78;55.97
50696;BME280;36665;51.786;21.594;2023-04-30T19:09:43;95166.55;;;8.50;55.77
50696;BME280;36665;51.786;21.594;2023-04-30T19:18:07;95025.16;;;8.13;55.74
50696;BME280;36665;51.786;21.594;2023-04-30T19:26:32;94877.80;;;7.73;55.60
50696;BME280;36665;51.786;21.594;2023-04-30T19:34:56;94737.79;;;7.36;55.45
50696;BME280;36665;51.786;21.594;2023-04-30T19:43:21;94593.30;;;6.97;55.38
50696;BME280;36665;51.786;21.594;2023-04-30T19:51:44;94469.61;;;6.64;55.35
50696;BME280;36665;51.786;21.594;2023-04-30T20:00:08;94333.02;;;6.27;55.28
50696;BME280;36665;51.786;21.594;2023-04-30T20:08:33;94220.05;;;5.96;55.15
50696;BME280;36665;51.786;21.594;2023-04-30T20:16:56;94095.30;;;5.63;55.16
50696;BME280;36665;51.786;21.594;2023-04-30T20:25:21;93996.52;;;5.37;54.75
50696;BME280;36665;51.786;21.594;2023-04-30T20:33:45;93906.59;;;5.13;54.95
50696;BME280;36665;51.786;21.594;2023-04-30T20:42:08;93817.64;;;4.89;54.57
50696;BME280;36665;51.786;21.594;2023-04-30T20:50:32;93750.05;;;4.71;54.58
50696;BME280;36665;51.786;21.594;2023-04-30T20:58:55;93674.00;;;4.51;54.52
50696;BME280;36665;51.786;21.594;2023-04-30T21:07:18;93596.61;;;4.30;54.60
50696;BME280;36665;51.786;21.594;2023-04-30T21:15:41;93513.21;;;4.07;54.58
50696;BME280;36665;51.786;21.594;2023-04-30T21:24:05;93450.34;;;3.90;54.46
50696;BME280;36665;51.786;21.594;2023-04-30T21:32:29;93386.64;;;3.72;54.37
50696;BME280;36665;51.786;21.594;2023-04-30T21:40:52;93318.49;;;3.54;54.16
50696;BME280;36665;51.786;21.594;2023-04-30T21:49:15;93254.58;;;3.37;54.14
50696;BME280;36665;51.786;21.594;2023-04-30T21:57:38;93193.48;;;3.19;54.00
50696;BME280;36665;51.786;21.594;2023-04-30T22:06:01;93147.10;;;3.08;53.89
50696;BME280;36665;51.786;21.594;2023-04-30T22:14:24;93138.48;;;3.06;53.99
50696;BME280;36665;51.786;21.594;2023-04-30T22:22:47;93118.43;;;3.00;53.84
50696;BME280;36665;51.786;21.594;2023-04-30T22:31:10;93029.17;;;2.76;54.02
50696;BME280;36665;51.786;21.594;2023-04-30T22:39:33;92918.08;;;2.45;54.00
50696;BME280;36665;51.786;21.594;2023-04-30T22:47:56;92827.52;;;2.21;53.78
50696;BME280;36665;51.786;21.594;2023-04-30T22:56:23;92792.20;;;2.10;53.91
50696;BME280;36665;51.786;21.594;2023-04-30T23:04:46;92773.11;;;2.06;53.77
50696;BME280;36665;51.786;21.594;2023-04-30T23:13:10;92733.52;;;1.95;53.92
50696;BME280;36665;51.786;21.594;2023-04-30T23:21:33;92692.05;;;1.84;53.74
50696;BME280;36665;51.786;21.594;2023-04-30T23:29:56;92664.86;;;1.76;53.58
50696;BME280;36665;51.786;21.594;2023-04-30T23:38:19;92667.98;;;1.77;53.64
50696;BME280;36665;51.786;21.594;2023-04-30T23:46:42;92630.88;;;1.68;53.58
50696;BME280;36665;51.786;21.594;2023-04-30T23:55:06;92575.45;;;1.52;53.61
